Time;durP1;ratioP1;P1;durP2;ratioP2;P2;SDS_P1;SDS_P2;PMS_P1;PMS_P2;Temp;Humidity;BMP_temperature;BMP_pressure;BME280_temperature;BME280_humidity;BME280_pressure;Samples;Min_cycle;Max_cycle;Signal;HPM_P1;HPM_P2
2022/03/03 00:02:01;;;;;;;88.55;39.08;;;2.80;99.90;;;;;;5033471;28;20448;-89
2022/03/03 00:04:27;;;;;;;85.18;38.65;;;3.40;99.90;;;;;;5050414;28;20520;-89
2022/03/03 00:06:53;;;;;;;85.03;39.63;;;3.40;99.90;;;;;;5017117;28;20140;-87
2022/03/03 00:09:19;;;;;;;84.68;38.85;;;2.80;99.90;;;;;;5033821;28;20056;-88
2022/03/03 00:11:44;;;;;;;83.85;38.25;;;4.20;99.90;;;;;;5016670;28;20037;-88
2022/03/03 00:14:10;;;;;;;81.82;39.50;;;2.70;99.90;;;;;;5033487;28;20033;-88
2022/03/03 00:16:36;;;;;;;85.40;39.17;;;3.40;99.90;;;;;;5033577;28;20530;-88
2022/03/03 00:19:02;;;;;;;87.07;39.15;;;4.40;99.90;;;;;;4999332;28;20697;-88
2022/03/03 00:21:28;;;;;;;;;;;4.20;99.90;;;;;;5034122;28;20124;-88
2022/03/03 00:23:54;;;;;;;79.70;37.15;;;2.70;99.90;;;;;;5016795;28;20371;-88
2022/03/03 00:26:19;;;;;;;81.85;39.08;;;2.60;99.90;;;;;;5017157;28;20037;-89
2022/03/03 00:28:45;;;;;;;81.27;38.27;;;2.60;99.90;;;;;;5033007;28;20040;-88
2022/03/03 00:31:11;;;;;;;85.57;39.85;;;4.30;99.90;;;;;;5033285;28;20079;-88
2022/03/03 00:33:36;;;;;;;85.68;39.67;;;2.50;99.90;;;;;;5033600;28;20496;-88
2022/03/03 00:36:02;;;;;;;84.97;39.53;;;2.50;99.90;;;;;;5033184;28;20123;-88
2022/03/03 00:38:28;;;;;;;82.82;39.33;;;2.50;99.90;;;;;;4999427;28;20120;-89
2022/03/03 00:40:54;;;;;;;82.85;38.42;;;2.70;99.90;;;;;;5016663;28;20108;-87
2022/03/03 00:43:20;;;;;;;91.32;39.22;;;2.40;99.90;;;;;;5034040;28;20116;-88
2022/03/03 00:45:46;;;;;;;88.30;41.78;;;2.30;99.90;;;;;;5033285;28;20396;-88
2022/03/03 00:48:11;;;;;;;88.25;40.00;;;2.80;99.90;;;;;;5016656;28;20067;-89
2022/03/03 00:50:37;;;;;;;83.53;39.07;;;2.70;99.90;;;;;;5017205;28;20515;-89
2022/03/03 00:53:03;;;;;;;82.75;38.20;;;3.30;99.90;;;;;;5016173;28;20295;-89
2022/03/03 00:55:29;;;;;;;85.95;39.08;;;2.60;99.90;;;;;;5032796;28;20480;-89
2022/03/03 00:57:55;;;;;;;84.60;39.30;;;3.00;99.90;;;;;;5014536;28;20120;-89
2022/03/03 01:00:20;;;;;;;80.90;36.83;;;2.50;99.90;;;;;;5033388;28;20627;-89
2022/03/03 01:02:47;;;;;;;81.80;39.95;;;2.30;99.90;;;;;;5032696;28;20037;-88
2022/03/03 01:05:13;;;;;;;82.32;39.83;;;2.10;99.90;;;;;;5033550;28;20416;-89
2022/03/03 01:07:38;;;;;;;81.95;37.92;;;3.10;99.90;;;;;;5016539;28;20044;-89
2022/03/03 01:10:06;;;;;;;79.30;38.53;;;3.30;99.90;;;;;;5016139;28;20045;-90
2022/03/03 01:12:32;;;;;;;83.07;39.00;;;2.00;99.90;;;;;;5014550;28;20119;-89
2022/03/03 01:14:58;;;;;;;79.55;37.83;;;2.00;99.90;;;;;;5049276;28;20484;-89
2022/03/03 01:17:24;;;;;;;82.40;38.25;;;2.00;99.90;;;;;;5032963;28;20029;-89
2022/03/03 01:19:50;;;;;;;80.55;36.88;;;2.00;99.90;;;;;;5032620;28;20025;-89
2022/03/03 01:22:16;;;;;;;77.88;37.03;;;1.90;99.90;;;;;;5016612;28;20040;-89
2022/03/03 01:24:42;;;;;;;83.22;38.45;;;3.00;99.90;;;;;;5016600;28;20033;-89
2022/03/03 01:27:08;;;;;;;;;;;3.20;99.90;;;;;;5016705;28;20037;-89
2022/03/03 01:29:34;;;;;;;85.32;38.88;;;3.00;99.90;;;;;;5032680;28;19932;-89
2022/03/03 01:31:59;;;;;;;79.97;38.05;;;2.70;99.90;;;;;;5015768;28;20447;-89
2022/03/03 01:34:25;;;;;;;84.03;37.72;;;3.00;99.90;;;;;;5032918;28;20037;-89
2022/03/03 01:36:51;;;;;;;87.07;39.70;;;1.90;99.90;;;;;;5032213;28;20037;-89
2022/03/03 01:39:17;;;;;;;93.65;40.22;;;3.20;99.90;;;;;;5016515;28;20036;-89
2022/03/03 01:41:42;;;;;;;80.97;37.60;;;2.60;99.90;;;;;;5016426;28;20106;-89
2022/03/03 01:44:09;;;;;;;81.82;39.70;;;3.00;99.90;;;;;;5029995;28;20044;-88
2022/03/03 01:46:35;;;;;;;89.38;39.00;;;1.70;99.90;;;;;;4997744;28;20060;-88
2022/03/03 01:49:01;;;;;;;89.70;39.83;;;1.70;99.90;;;;;;5015709;28;20128;-89
2022/03/03 01:51:27;;;;;;;81.72;39.00;;;2.40;99.90;;;;;;5032651;28;20503;-88
2022/03/03 01:53:53;;;;;;;81.70;38.05;;;1.60;99.90;;;;;;5031654;28;20420;-88
2022/03/03 01:56:19;;;;;;;83.90;39.03;;;3.50;99.90;;;;;;4998037;28;20037;-89
2022/03/03 01:58:45;;;;;;;79.68;38.50;;;1.60;99.90;;;;;;5016592;28;20037;-89
2022/03/03 02:01:12;;;;;;;86.10;40.10;;;1.80;99.90;;;;;;5036150;28;20488;-88
2022/03/03 02:03:38;;;;;;;81.85;38.50;;;3.30;99.90;;;;;;5036285;28;20037;-88
2022/03/03 02:06:04;;;;;;;83.18;38.42;;;2.80;99.90;;;;;;5019700;28;20040;-88
2022/03/03 02:08:29;;;;;;;86.40;38.53;;;1.50;99.90;;;;;;5052009;28;20033;-90
2022/03/03 02:10:55;;;;;;;84.47;39.60;;;1.50;99.90;;;;;;5051878;28;20033;-90
2022/03/03 02:13:21;;;;;;;85.55;37.78;;;1.50;99.90;;;;;;5036011;28;20076;-88
2022/03/03 02:15:52;;;;;;;84.32;39.05;;;1.50;99.90;;;;;;5036120;28;20036;-89
2022/03/03 02:18:18;;;;;;;83.95;39.80;;;2.20;99.90;;;;;;5035826;28;20037;-89
2022/03/03 02:20:44;;;;;;;86.72;39.60;;;1.40;99.90;;;;;;5052581;28;20096;-89
2022/03/03 02:23:10;;;;;;;83.53;38.15;;;3.10;99.90;;;;;;5018984;28;20061;-89
2022/03/03 02:25:35;;;;;;;79.90;39.78;;;1.40;99.90;;;;;;5003582;28;20041;-89
2022/03/03 02:28:01;;;;;;;80.72;37.25;;;2.10;99.90;;;;;;5018643;28;20187;-89
2022/03/03 02:30:27;;;;;;;78.25;37.30;;;2.60;99.90;;;;;;5019308;28;20044;-89
2022/03/03 02:32:52;;;;;;;78.63;37.47;;;3.20;99.90;;;;;;5018962;28;20029;-88
2022/03/03 02:35:19;;;;;;;77.45;37.10;;;2.20;99.90;;;;;;5035525;28;20056;-89
2022/03/03 02:37:46;;;;;;;75.32;37.08;;;3.20;99.90;;;;;;5019538;28;20037;-89
2022/03/03 02:40:20;;;;;;;77.47;37.63;;;1.30;99.90;;;;;;5034827;28;20037;-88
2022/03/03 02:42:52;;;;;;;77.85;37.72;;;1.60;99.90;;;;;;5035479;28;20086;-89
2022/03/03 02:45:19;;;;;;;80.85;38.70;;;1.20;99.90;;;;;;5035100;28;20508;-89
2022/03/03 02:47:48;;;;;;;80.82;38.72;;;2.60;99.90;;;;;;5035620;28;20045;-89
2022/03/03 02:50:15;;;;;;;84.72;39.00;;;2.40;99.90;;;;;;5034717;28;20059;-88
2022/03/03 02:52:41;;;;;;;80.80;38.17;;;1.20;99.90;;;;;;5035320;28;20044;-90
2022/03/03 02:55:08;;;;;;;82.88;39.05;;;1.10;99.90;;;;;;5018266;28;20037;-90
2022/03/03 03:00:19;;;;;;;80.28;38.30;;;1.10;99.90;;;;;;5048876;28;20075;-89
2022/03/03 03:02:45;;;;;;;;;;;2.70;99.90;;;;;;5035423;28;20082;-89
2022/03/03 03:05:10;;;;;;;88.82;39.95;;;1.10;99.90;;;;;;5034758;28;20342;-90
2022/03/03 03:07:37;;;;;;;79.27;37.17;;;1.00;99.90;;;;;;5018706;28;20081;-89
2022/03/03 03:10:04;;;;;;;83.80;41.13;;;1.00;99.90;;;;;;5018193;28;20299;-89
2022/03/03 03:12:30;;;;;;;90.03;41.33;;;1.00;99.90;;;;;;5018707;28;20048;-89
2022/03/03 03:14:55;;;;;;;88.97;40.83;;;0.90;99.90;;;;;;5018365;28;20040;-88
2022/03/03 03:17:22;;;;;;;90.55;40.10;;;0.90;99.90;;;;;;5035109;28;20037;-89
2022/03/03 03:19:48;;;;;;;84.90;39.97;;;0.90;99.90;;;;;;5035075;28;20064;-89
2022/03/03 03:22:13;;;;;;;87.85;40.47;;;0.80;99.90;;;;;;5018671;28;20507;-89
2022/03/03 03:24:39;;;;;;;82.88;39.45;;;0.90;99.90;;;;;;5018467;28;20048;-89
2022/03/03 03:27:05;;;;;;;87.22;39.75;;;0.90;99.90;;;;;;5016810;28;20536;-89
2022/03/03 03:29:30;;;;;;;79.45;38.28;;;2.60;99.90;;;;;;5018304;28;20485;-89
2022/03/03 03:31:56;;;;;;;87.93;40.30;;;2.70;99.90;;;;;;5033608;28;20037;-89
2022/03/03 03:34:22;;;;;;;84.90;41.28;;;0.90;99.90;;;;;;5033113;28;20041;-89
2022/03/03 03:36:48;;;;;;;87.85;41.92;;;0.90;99.90;;;;;;5017639;28;20033;-89
2022/03/03 03:39:14;;;;;;;86.13;42.63;;;2.30;99.90;;;;;;5017280;28;20044;-89
2022/03/03 03:41:40;;;;;;;82.95;41.97;;;2.00;99.90;;;;;;5051035;28;20116;-89
2022/03/03 03:44:06;;;;;;;84.97;41.28;;;0.90;99.90;;;;;;5001570;28;20046;-88
2022/03/03 03:46:31;;;;;;;86.38;41.03;;;0.90;99.90;;;;;;5001404;28;20055;-89
2022/03/03 03:48:57;;;;;;;81.75;39.83;;;0.90;99.90;;;;;;5050937;28;20041;-89
2022/03/03 03:51:23;;;;;;;81.30;38.40;;;2.70;99.90;;;;;;5033687;28;20120;-89
2022/03/03 03:53:48;;;;;;;81.55;37.72;;;2.20;99.90;;;;;;5034008;28;20033;-89
2022/03/03 03:56:14;;;;;;;80.07;37.88;;;0.80;99.90;;;;;;5033615;28;20094;-89
2022/03/03 03:58:40;;;;;;;74.23;36.87;;;2.50;99.90;;;;;;5033902;28;20029;-89
2022/03/03 04:01:06;;;;;;;72.07;35.53;;;0.80;99.90;;;;;;5017225;28;20275;-89
2022/03/03 04:03:31;;;;;;;73.67;34.47;;;0.80;99.90;;;;;;4998825;28;20040;-89
2022/03/03 04:05:57;;;;;;;76.50;37.47;;;0.80;99.90;;;;;;5017394;28;20279;-88
2022/03/03 04:08:23;;;;;;;75.10;35.67;;;2.40;99.90;;;;;;5033289;28;20502;-89
2022/03/03 04:10:49;;;;;;;70.63;35.70;;;1.60;99.90;;;;;;5000519;28;20498;-89
2022/03/03 04:13:15;;;;;;;78.95;38.03;;;2.60;99.90;;;;;;5016460;28;20041;-89
2022/03/03 04:15:41;;;;;;;74.18;37.20;;;1.90;99.90;;;;;;5017864;28;20170;-89
2022/03/03 04:18:07;;;;;;;74.82;36.60;;;1.90;99.90;;;;;;5033103;28;20045;-89
2022/03/03 04:20:33;;;;;;;71.03;36.55;;;0.70;99.90;;;;;;5017098;28;20043;-88
2022/03/03 04:22:59;;;;;;;70.05;34.95;;;0.80;99.90;;;;;;5000382;28;20487;-89
2022/03/03 04:25:24;;;;;;;61.53;33.70;;;2.30;99.90;;;;;;5016863;28;20040;-88
2022/03/03 04:27:50;;;;;;;69.07;34.65;;;0.80;99.90;;;;;;5033435;28;20045;-89
2022/03/03 04:30:16;;;;;;;70.18;34.67;;;0.70;99.90;;;;;;4999311;28;20079;-89
2022/03/03 04:32:42;;;;;;;64.88;34.38;;;2.20;99.90;;;;;;5016874;28;20135;-89
2022/03/03 04:35:08;;;;;;;64.72;34.05;;;0.80;99.90;;;;;;5032697;28;20102;-89
2022/03/03 04:37:35;;;;;;;62.70;32.80;;;0.80;99.90;;;;;;5033556;28;20033;-89
2022/03/03 04:40:01;;;;;;;65.00;33.25;;;1.90;99.90;;;;;;5050093;28;20029;-88
2022/03/03 04:42:26;;;;;;;65.75;34.67;;;2.00;99.90;;;;;;5033361;28;20488;-89
2022/03/03 04:44:52;;;;;;;67.75;33.72;;;2.40;99.90;;;;;;5016612;28;20048;-89
2022/03/03 04:47:18;;;;;;;64.22;32.78;;;0.70;99.90;;;;;;5016625;28;20045;-88
2022/03/03 04:49:44;;;;;;;68.30;34.15;;;0.70;99.90;;;;;;5016073;28;20071;-88
2022/03/03 04:52:09;;;;;;;63.38;34.83;;;2.40;99.90;;;;;;5032630;28;20480;-88
2022/03/03 04:54:35;;;;;;;59.88;33.50;;;2.10;99.90;;;;;;5016634;28;20029;-89
2022/03/03 04:57:01;;;;;;;63.42;33.10;;;0.70;99.90;;;;;;5032849;28;20056;-88
2022/03/03 04:59:27;;;;;;;60.33;31.23;;;0.70;99.90;;;;;;5016679;28;20154;-88
2022/03/03 05:01:53;;;;;;;63.95;33.17;;;0.90;99.90;;;;;;5000027;28;20177;-88
2022/03/03 05:04:19;;;;;;;60.88;31.60;;;2.40;99.90;;;;;;5032573;28;20032;-88
2022/03/03 05:06:45;;;;;;;62.55;33.10;;;2.50;99.90;;;;;;5033308;28;20033;-88
2022/03/03 05:09:11;;;;;;;63.60;32.72;;;1.80;99.90;;;;;;5016096;28;20131;-89
2022/03/03 05:11:37;;;;;;;63.25;33.03;;;0.60;99.90;;;;;;5015961;28;20125;-89
2022/03/03 05:14:03;;;;;;;62.95;32.22;;;0.60;99.90;;;;;;5017077;28;20044;-85
2022/03/03 05:16:29;;;;;;;60.97;32.40;;;0.50;99.90;;;;;;5018264;28;20029;-86
2022/03/03 05:18:54;;;;;;;59.67;31.90;;;0.50;99.90;;;;;;5016785;28;20407;-87
2022/03/03 05:21:20;;;;;;;64.35;32.47;;;0.50;99.90;;;;;;5015284;28;20097;-85
2022/03/03 05:23:46;;;;;;;61.58;32.35;;;0.50;99.90;;;;;;5016077;28;20044;-86
2022/03/03 05:26:12;;;;;;;59.00;32.47;;;0.40;99.90;;;;;;5015491;28;20037;-86
2022/03/03 05:28:39;;;;;;;64.85;33.80;;;0.40;99.90;;;;;;5017341;28;20341;-86
2022/03/03 05:31:04;;;;;;;63.28;32.35;;;1.50;99.90;;;;;;5016317;28;20110;-88
2022/03/03 05:33:32;;;;;;;64.68;32.95;;;0.50;99.90;;;;;;5050556;28;20083;-87
2022/03/03 05:36:02;;;;;;;60.85;31.70;;;0.40;99.90;;;;;;5020734;28;20037;-89
2022/03/03 05:38:31;;;;;;;60.33;30.90;;;0.40;99.90;;;;;;5052802;28;20037;-89
2022/03/03 05:40:57;;;;;;;60.75;32.30;;;1.90;99.90;;;;;;5036604;28;20033;-89
2022/03/03 05:43:24;;;;;;;66.15;32.88;;;0.30;99.90;;;;;;5036179;28;20124;-89
2022/03/03 05:45:51;;;;;;;64.15;33.83;;;2.00;99.90;;;;;;5019931;28;20064;-88
2022/03/03 05:48:19;;;;;;;64.78;33.40;;;0.30;99.90;;;;;;5019841;28;20145;-86
2022/03/03 05:50:45;;;;;;;64.35;33.83;;;2.10;99.90;;;;;;5036367;28;20037;-85
2022/03/03 05:53:12;;;;;;;64.13;35.03;;;0.30;99.90;;;;;;5035612;28;20235;-85
2022/03/03 05:55:43;;;;;;;62.88;33.95;;;1.90;99.90;;;;;;5019892;28;21540;-82
2022/03/03 05:58:15;;;;;;;64.15;34.90;;;0.20;99.90;;;;;;5052669;28;20036;-85
2022/03/03 06:00:46;;;;;;;64.65;34.20;;;1.90;99.90;;;;;;5036131;28;20033;-85
2022/03/03 06:03:17;;;;;;;69.30;33.80;;;0.20;99.90;;;;;;5052424;28;20041;-84
2022/03/03 06:05:53;;;;;;;64.38;33.47;;;0.10;99.90;;;;;;5034470;28;20500;-85
2022/03/03 06:08:31;;;;;;;64.55;33.03;;;0.10;99.90;;;;;;5035738;28;20037;-85
2022/03/03 06:11:02;;;;;;;68.20;34.63;;;0.10;99.90;;;;;;5050511;28;20048;-84
2022/03/03 06:13:38;;;;;;;65.00;33.97;;;0.10;99.90;;;;;;5035919;28;20397;-85
2022/03/03 06:16:04;;;;;;;69.45;34.58;;;0.10;99.90;;;;;;5049117;28;20041;-85
2022/03/03 06:18:33;;;;;;;;;;;0.10;99.90;;;;;;5035893;28;20116;-85
2022/03/03 06:20:59;;;;;;;65.82;33.22;;;0.70;99.90;;;;;;5052462;28;20022;-85
2022/03/03 06:23:25;;;;;;;;;;;0.40;99.90;;;;;;5035888;28;20037;-84
2022/03/03 06:26:02;;;;;;;66.07;35.00;;;0.00;99.90;;;;;;5019437;28;20273;-85
2022/03/03 06:28:28;;;;;;;64.30;34.13;;;0.10;99.90;;;;;;5049691;28;20037;-85
2022/03/03 06:30:54;;;;;;;;;;;0.10;99.90;;;;;;5019859;28;20041;-85
2022/03/03 06:33:19;;;;;;;63.20;33.60;;;1.70;99.90;;;;;;5035420;28;20004;-86
2022/03/03 06:35:45;;;;;;;64.55;33.83;;;0.10;99.90;;;;;;5002918;28;20033;-85
2022/03/03 06:38:11;;;;;;;62.05;33.42;;;0.90;99.90;;;;;;5002882;28;20036;-85
2022/03/03 06:40:36;;;;;;;65.10;34.17;;;0.10;99.90;;;;;;5018597;28;20116;-85
2022/03/03 06:43:03;;;;;;;63.83;34.85;;;0.10;99.90;;;;;;5018316;28;20452;-84
2022/03/03 06:45:29;;;;;;;66.47;34.58;;;1.40;99.90;;;;;;5033427;28;20044;-84
2022/03/03 06:48:01;;;;;;;60.72;33.85;;;0.10;99.90;;;;;;5051750;28;20057;-85
2022/03/03 06:50:27;;;;;;;65.90;34.10;;;1.00;99.90;;;;;;5032244;28;20045;-85
2022/03/03 06:52:54;;;;;;;64.97;34.03;;;0.20;99.90;;;;;;5034676;28;20041;-86
2022/03/03 06:55:24;;;;;;;65.10;33.63;;;0.30;99.90;;;;;;5017718;28;20039;-85
2022/03/03 06:57:54;;;;;;;57.80;32.35;;;0.40;99.90;;;;;;5034745;28;20037;-85
2022/03/03 07:00:22;;;;;;;58.85;31.70;;;0.50;99.90;;;;;;5049228;28;20045;-85
2022/03/03 07:02:48;;;;;;;61.63;32.70;;;0.60;99.90;;;;;;5035017;28;20087;-86
2022/03/03 07:05:15;;;;;;;60.22;33.13;;;0.70;99.90;;;;;;5018558;28;20094;-84
2022/03/03 07:07:41;;;;;;;;;;;0.90;99.90;;;;;;5052056;28;20036;-85
2022/03/03 07:10:07;;;;;;;56.75;32.10;;;0.90;99.90;;;;;;5051546;28;20434;-85
2022/03/03 07:12:34;;;;;;;60.22;32.97;;;1.10;99.90;;;;;;5050977;28;20048;-84
2022/03/03 07:15:01;;;;;;;58.05;31.60;;;1.70;99.90;;;;;;5051546;28;20495;-85
2022/03/03 07:17:59;;;;;;;58.90;31.13;;;1.10;99.90;;;;;;5050932;28;20119;-85
2022/03/03 07:20:27;;;;;;;57.72;31.38;;;1.40;99.90;;;;;;5045650;28;20057;-85
2022/03/03 07:22:56;;;;;;;58.53;30.40;;;1.60;99.90;;;;;;5034825;28;20033;-86
2022/03/03 07:25:25;;;;;;;57.97;30.88;;;1.70;99.90;;;;;;5034383;28;20036;-85
2022/03/03 07:27:54;;;;;;;57.00;31.05;;;2.60;99.90;;;;;;5051249;28;20037;-86
2022/03/03 07:30:20;;;;;;;56.38;30.98;;;1.90;99.90;;;;;;5034366;28;20536;-86
2022/03/03 07:32:55;;;;;;;57.65;31.13;;;2.00;99.90;;;;;;5001696;28;20124;-86
2022/03/03 07:35:25;;;;;;;53.72;30.23;;;2.10;99.90;;;;;;5033959;28;20033;-86
2022/03/03 07:38:02;;;;;;;57.97;30.75;;;2.20;99.90;;;;;;5034829;28;20032;-85
2022/03/03 07:40:30;;;;;;;57.08;31.42;;;2.30;99.90;;;;;;5049467;28;20037;-85
2022/03/03 07:42:57;;;;;;;56.25;30.30;;;3.30;99.90;;;;;;5034349;28;20150;-86
2022/03/03 07:45:23;;;;;;;;;;;2.60;99.90;;;;;;5018035;28;20045;-86
2022/03/03 07:47:50;;;;;;;57.88;30.58;;;3.40;99.90;;;;;;5050869;28;19917;-85
2022/03/03 07:50:16;;;;;;;56.00;29.75;;;2.80;99.90;;;;;;5051028;28;20150;-86
2022/03/03 07:52:44;;;;;;;54.85;29.33;;;3.50;99.90;;;;;;5033742;28;20120;-85
2022/03/03 07:55:10;;;;;;;55.53;28.33;;;4.40;99.90;;;;;;5017730;28;20033;-86
2022/03/03 07:57:44;;;;;;;52.42;27.70;;;2.90;99.90;;;;;;5032451;28;20029;-85
2022/03/03 08:00:13;;;;;;;54.60;27.92;;;3.10;99.90;;;;;;5033937;28;20041;-85
2022/03/03 08:02:43;;;;;;;50.90;27.60;;;3.20;99.90;;;;;;5033598;28;20119;-86
2022/03/03 08:05:09;;;;;;;51.40;26.13;;;3.50;99.90;;;;;;5033768;28;20037;-86
2022/03/03 08:07:42;;;;;;;49.78;26.13;;;3.70;99.90;;;;;;5017104;28;20079;-86
2022/03/03 08:10:09;;;;;;;48.85;25.40;;;4.40;99.90;;;;;;5033814;28;20385;-86
2022/03/03 08:12:37;;;;;;;47.38;25.17;;;4.90;99.90;;;;;;5033391;28;20041;-86
2022/03/03 08:15:03;;;;;;;45.40;24.92;;;5.50;99.90;;;;;;5033631;28;20051;-86
2022/03/03 08:17:30;;;;;;;44.00;24.50;;;5.80;99.90;;;;;;5033398;28;20082;-87
2022/03/03 08:19:56;;;;;;;43.80;23.58;;;6.60;99.90;;;;;;5033961;28;20051;-87
2022/03/03 08:22:24;;;;;;;47.72;24.67;;;6.70;99.90;;;;;;5017298;28;20047;-86
2022/03/03 08:25:00;;;;;;;42.83;24.40;;;7.10;99.90;;;;;;5050196;28;20041;-87
2022/03/03 08:27:26;;;;;;;42.53;23.63;;;7.70;99.90;;;;;;5031776;28;20396;-86
2022/03/03 08:29:53;;;;;;;;;;;8.10;99.90;;;;;;5050528;28;20040;-88
2022/03/03 08:32:20;;;;;;;40.83;23.67;;;8.10;99.90;;;;;;5033297;28;19977;-87
2022/03/03 08:35:04;;;;;;;37.65;22.25;;;8.70;99.90;;;;;;5016609;28;20037;-86
2022/03/03 08:37:39;;;;;;;36.95;22.08;;;8.30;99.90;;;;;;5049652;28;20036;-85
2022/03/03 08:40:08;;;;;;;38.00;22.23;;;8.80;99.90;;;;;;5032271;28;20120;-86
2022/03/03 08:42:44;;;;;;;33.67;20.88;;;9.20;99.90;;;;;;5016811;28;20043;-86
2022/03/03 08:45:11;;;;;;;35.90;20.63;;;9.60;99.90;;;;;;5033380;28;20124;-85
2022/03/03 08:47:39;;;;;;;36.88;21.38;;;10.40;99.90;;;;;;5032994;28;20040;-86
2022/03/03 08:50:09;;;;;;;36.40;20.23;;;10.10;99.90;;;;;;5049722;28;20045;-86
2022/03/03 08:52:39;;;;;;;30.85;20.45;;;10.20;99.90;;;;;;5049043;28;20480;-85
2022/03/03 08:55:07;;;;;;;32.38;21.00;;;10.40;99.90;;;;;;5016457;28;20037;-86
2022/03/03 08:57:33;;;;;;;33.13;20.67;;;10.70;99.90;;;;;;5000132;28;20036;-86
2022/03/03 08:59:58;;;;;;;34.08;20.25;;;10.60;99.90;;;;;;5016723;28;20041;-86
2022/03/03 09:02:24;;;;;;;33.53;19.77;;;10.40;99.90;;;;;;5016558;28;20041;-86
2022/03/03 09:04:50;;;;;;;29.23;19.08;;;10.70;99.90;;;;;;5014753;28;20053;-85
2022/03/03 09:07:15;;;;;;;33.53;19.75;;;10.60;99.90;;;;;;5033075;28;20124;-85
2022/03/03 09:09:42;;;;;;;30.45;19.38;;;10.90;99.90;;;;;;5019660;28;20036;-85
2022/03/03 09:12:08;;;;;;;30.27;19.50;;;11.40;99.90;;;;;;5053566;28;20037;-85
2022/03/03 09:14:34;;;;;;;;;;;11.30;99.90;;;;;;5037099;28;20048;-85
2022/03/03 09:17:00;;;;;;;29.75;18.90;;;11.40;99.90;;;;;;5053864;28;20368;-85
2022/03/03 09:19:26;;;;;;;28.77;18.45;;;11.50;99.90;;;;;;5037191;28;20122;-85
2022/03/03 09:21:52;;;;;;;;;;;11.70;99.30;;;;;;5020876;28;20051;-86
2022/03/03 09:24:18;;;;;;;30.83;19.00;;;11.60;98.30;;;;;;5036836;28;20350;-85
2022/03/03 09:26:43;;;;;;;30.33;18.23;;;12.00;98.40;;;;;;5036462;28;20116;-85
2022/03/03 09:29:09;;;;;;;30.65;18.95;;;12.50;98.60;;;;;;5037177;28;20477;-85
2022/03/03 09:31:35;;;;;;;29.23;18.48;;;12.50;97.10;;;;;;5019739;28;20123;-86
2022/03/03 09:34:00;;;;;;;30.23;19.58;;;13.10;95.10;;;;;;5036803;28;20029;-85
2022/03/03 09:36:26;;;;;;;25.20;18.02;;;13.40;95.80;;;;;;5002735;28;20488;-85
2022/03/03 09:38:52;;;;;;;27.33;17.60;;;12.80;92.90;;;;;;5036546;28;20116;-85
2022/03/03 09:41:18;;;;;;;26.48;17.95;;;12.40;95.00;;;;;;5020057;28;20135;-85
2022/03/03 09:43:44;;;;;;;24.52;16.90;;;12.50;96.30;;;;;;5052778;28;20073;-86
2022/03/03 09:46:10;;;;;;;26.40;17.33;;;13.10;94.60;;;;;;5036235;28;20504;-86
2022/03/03 09:48:37;;;;;;;24.90;17.55;;;13.20;92.30;;;;;;5036176;28;20040;-86
2022/03/03 09:51:03;;;;;;;;;;;13.50;93.10;;;;;;5036753;28;20040;-85
2022/03/03 09:53:28;;;;;;;22.20;15.18;;;13.60;92.30;;;;;;5053127;28;20394;-86
2022/03/03 09:55:54;;;;;;;23.88;16.75;;;14.30;88.30;;;;;;5019587;28;20025;-85
2022/03/03 09:58:20;;;;;;;28.42;16.38;;;14.50;90.00;;;;;;5036078;28;20543;-86
2022/03/03 10:00:46;;;;;;;25.05;17.52;;;15.10;89.30;;;;;;5035571;28;20033;-86
2022/03/03 10:03:14;;;;;;;;;;;15.30;88.10;;;;;;5019973;28;20047;-85
2022/03/03 10:05:52;;;;;;;23.08;16.40;;;15.00;81.40;;;;;;5035781;28;19916;-86
2022/03/03 10:08:19;;;;;;;24.48;17.08;;;15.10;79.20;;;;;;5049440;28;20051;-86
2022/03/03 10:10:50;;;;;;;24.05;16.88;;;15.60;79.40;;;;;;5052780;28;20047;-86
2022/03/03 10:13:18;;;;;;;22.42;16.77;;;15.90;80.70;;;;;;5036093;28;20039;-86
2022/03/03 10:15:45;;;;;;;24.55;16.50;;;15.70;79.90;;;;;;5035986;28;20427;-85
2022/03/03 10:18:13;;;;;;;24.23;16.83;;;15.40;76.10;;;;;;5052820;28;20450;-85
2022/03/03 10:20:50;;;;;;;26.38;17.48;;;15.30;81.40;;;;;;5051278;28;20108;-86
2022/03/03 10:23:16;;;;;;;24.95;16.90;;;15.00;80.60;;;;;;5052474;28;20037;-85
2022/03/03 10:25:44;;;;;;;21.00;15.98;;;15.60;81.10;;;;;;5035632;28;20079;-85
2022/03/03 10:28:13;;;;;;;24.05;16.42;;;16.40;77.50;;;;;;5052646;28;20503;-85
2022/03/03 10:30:49;;;;;;;21.27;16.05;;;16.30;73.90;;;;;;5033776;28;20400;-86
2022/03/03 10:33:17;;;;;;;21.45;15.40;;;15.30;77.90;;;;;;5035560;28;20116;-85
2022/03/03 10:36:08;;;;;;;21.33;14.90;;;14.80;76.70;;;;;;5035321;28;20094;-85
2022/03/03 10:38:53;;;;;;;19.23;14.45;;;15.40;76.60;;;;;;5033431;28;20033;-85
2022/03/03 10:41:40;;;;;;;21.00;15.27;;;15.10;75.40;;;;;;5034675;28;20033;-85
2022/03/03 10:44:15;;;;;;;21.33;16.05;;;15.70;76.70;;;;;;5064500;28;20091;-85
2022/03/03 10:47:07;;;;;;;21.38;15.07;;;16.10;76.60;;;;;;5049462;28;20500;-84
2022/03/03 10:49:38;;;;;;;21.92;14.82;;;15.80;73.50;;;;;;5052251;28;20408;-85
2022/03/03 10:52:19;;;;;;;19.58;14.63;;;15.90;74.60;;;;;;5035691;28;20539;-84
2022/03/03 10:54:57;;;;;;;20.02;14.55;;;16.70;72.20;;;;;;5034104;28;20067;-85
2022/03/03 10:57:38;;;;;;;20.83;14.93;;;17.00;70.70;;;;;;5051318;28;20485;-85
2022/03/03 11:00:19;;;;;;;21.83;15.95;;;16.60;72.70;;;;;;5051490;28;20041;-85
2022/03/03 11:02:47;;;;;;;20.05;13.98;;;16.60;72.40;;;;;;5035342;28;20047;-85
2022/03/03 11:05:14;;;;;;;18.73;13.98;;;17.00;72.40;;;;;;5051706;28;20124;-85
2022/03/03 11:07:46;;;;;;;17.35;13.95;;;17.20;70.60;;;;;;5035206;28;20045;-85
2022/03/03 11:10:18;;;;;;;19.17;13.98;;;17.70;69.80;;;;;;5035063;28;20041;-85
2022/03/03 11:12:44;;;;;;;22.02;14.65;;;17.20;71.00;;;;;;5033053;28;20404;-85
2022/03/03 11:15:11;;;;;;;17.25;13.95;;;17.00;71.80;;;;;;5034930;28;20035;-85
2022/03/03 11:17:37;;;;;;;18.08;14.07;;;16.80;71.70;;;;;;5051307;28;20103;-85
2022/03/03 11:20:09;;;;;;;18.08;13.25;;;16.40;70.30;;;;;;5035225;28;20032;-85
2022/03/03 11:22:34;;;;;;;19.88;15.13;;;16.50;69.90;;;;;;5035392;28;20040;-85
2022/03/03 11:25:08;;;;;;;17.90;14.15;;;16.80;68.30;;;;;;5034978;28;20106;-85
2022/03/03 11:27:40;;;;;;;20.48;14.55;;;16.60;70.50;;;;;;5034532;28;20037;-85
2022/03/03 11:30:19;;;;;;;21.48;14.75;;;16.80;73.00;;;;;;5034742;28;20498;-85
2022/03/03 11:33:06;;;;;;;20.40;14.63;;;16.60;71.70;;;;;;5050936;28;20041;-84
2022/03/03 11:35:49;;;;;;;19.13;14.37;;;16.20;70.90;;;;;;5030305;28;20083;-85
2022/03/03 11:38:16;;;;;;;17.42;13.48;;;16.80;70.00;;;;;;5049680;28;20146;-84
2022/03/03 11:41:11;;;;;;;18.58;13.80;;;16.40;70.40;;;;;;5052074;28;20112;-83
2022/03/03 11:44:00;;;;;;;19.13;14.18;;;16.70;69.90;;;;;;5017957;28;20057;-85
2022/03/03 11:46:46;;;;;;;20.27;14.65;;;16.40;72.10;;;;;;5049923;28;20061;-84
2022/03/03 11:49:15;;;;;;;21.65;14.98;;;15.80;75.30;;;;;;5050082;28;20068;-84
2022/03/03 11:51:42;;;;;;;20.58;15.23;;;16.10;76.80;;;;;;5034337;28;20039;-84
2022/03/03 11:54:11;;;;;;;20.48;15.63;;;16.00;77.40;;;;;;5050748;28;20053;-84
2022/03/03 11:57:09;;;;;;;19.98;15.50;;;16.90;75.00;;;;;;5051016;28;20029;-84
2022/03/03 11:59:39;;;;;;;20.02;14.10;;;16.50;73.60;;;;;;5051058;28;20033;-84
2022/03/03 12:02:06;;;;;;;20.70;14.75;;;16.60;72.30;;;;;;5051437;28;20039;-84
2022/03/03 12:04:32;;;;;;;18.75;13.32;;;16.00;75.10;;;;;;5052606;28;20115;-84
2022/03/03 12:06:58;;;;;;;21.98;14.40;;;16.40;71.70;;;;;;5034579;28;20102;-85
2022/03/03 12:09:26;;;;;;;19.88;14.43;;;17.30;69.40;;;;;;5051508;28;20488;-84
2022/03/03 12:12:10;;;;;;;19.77;13.60;;;17.20;70.70;;;;;;5050139;28;20049;-84
2022/03/03 12:14:42;;;;;;;17.58;13.35;;;18.10;69.90;;;;;;5018205;28;20500;-84
2022/03/03 12:17:40;;;;;;;19.17;13.90;;;18.10;66.80;;;;;;5051925;28;20041;-84
2022/03/03 12:20:27;;;;;;;18.67;13.32;;;18.00;67.50;;;;;;5033135;28;20037;-85
2022/03/03 12:23:23;;;;;;;17.33;13.15;;;18.30;65.20;;;;;;5050005;28;20110;-84
2022/03/03 12:25:54;;;;;;;17.45;12.77;;;18.40;67.30;;;;;;5049620;28;20119;-84
2022/03/03 12:28:41;;;;;;;15.98;12.20;;;17.40;66.20;;;;;;5033416;28;20121;-84
2022/03/03 12:31:39;;;;;;;16.58;12.13;;;17.20;66.90;;;;;;5032139;28;20041;-84
2022/03/03 12:34:06;;;;;;;17.45;12.95;;;17.50;66.80;;;;;;5048855;28;20055;-84
2022/03/03 12:36:38;;;;;;;16.00;12.20;;;18.00;65.10;;;;;;5033888;28;20048;-84
2022/03/03 12:39:05;;;;;;;15.98;11.85;;;18.60;65.60;;;;;;5049568;28;20045;-84
2022/03/03 12:41:33;;;;;;;16.90;12.25;;;18.40;65.80;;;;;;5050373;28;20051;-84
2022/03/03 12:44:09;;;;;;;15.20;11.75;;;19.20;64.20;;;;;;5051087;28;20036;-84
2022/03/03 12:46:35;;;;;;;16.85;12.00;;;18.60;64.20;;;;;;5048233;28;20059;-84
2022/03/03 12:49:09;;;;;;;15.77;12.27;;;19.30;65.40;;;;;;5050112;28;20400;-84